sensor_id;sensor_type;location;lat;lon;timestamp;pressure;altitude;pressure_sealevel;temperature;humidity
28927;BME280;16038;47.692;9.400;2023-02-04T00:00:02;98003.31;;;4.47;100.00
28927;BME280;16038;47.692;9.400;2023-02-04T00:02:28;98003.75;;;4.35;100.00
28927;BME280;16038;47.692;9.400;2023-02-04T00:04:54;97994.81;;;4.35;100.00
28927;BME280;16038;47.692;9.400;2023-02-04T00:07:19;97992.59;;;4.37;100.00
28927;BME280;16038;47.692;9.400;2023-02-04T00:09:44;97993.09;;;4.39;100.00
28927;BME280;16038;47.692;9.400;2023-02-04T00:12:12;98001.94;;;4.31;100.00
28927;BME280;16038;47.692;9.400;2023-02-04T00:14:37;98006.22;;;4.32;100.00
28927;BME280;16038;47.692;9.400;2023-02-04T00:17:02;98007.28;;;4.36;100.00
28927;BME280;16038;47.692;9.400;2023-02-04T00:19:28;98010.63;;;4.28;100.00
28927;BME280;16038;47.692;9.400;2023-02-04T00:21:53;98006.31;;;4.27;100.00
28927;BME280;16038;47.692;9.400;2023-02-04T00:24:18;98003.38;;;4.23;100.00
28927;BME280;16038;47.692;9.400;2023-02-04T00:26:43;98004.63;;;4.31;100.00
28927;BME280;16038;47.692;9.400;2023-02-04T00:29:09;98014.75;;;4.25;100.00
28927;BME280;16038;47.692;9.400;2023-02-04T00:31:34;98014.97;;;4.29;100.00
28927;BME280;16038;47.692;9.400;2023-02-04T00:33:59;98027.06;;;4.36;100.00
28927;BME280;16038;47.692;9.400;2023-02-04T00:36:24;98019.72;;;4.37;100.00
28927;BME280;16038;47.692;9.400;2023-02-04T00:38:50;98016.72;;;4.19;100.00
28927;BME280;16038;47.692;9.400;2023-02-04T00:41:15;98001.28;;;4.20;100.00
28927;BME280;16038;47.692;9.400;2023-02-04T00:43:40;98016.66;;;4.25;100.00
28927;BME280;16038;47.692;9.400;2023-02-04T00:46:06;98018.53;;;4.05;100.00
28927;BME280;16038;47.692;9.400;2023-02-04T00:48:31;98024.63;;;3.97;100.00
28927;BME280;16038;47.692;9.400;2023-02-04T00:50:58;98009.53;;;4.10;100.00
28927;BME280;16038;47.692;9.400;2023-02-04T00:53:23;98018.84;;;4.04;100.00
28927;BME280;16038;47.692;9.400;2023-02-04T00:55:48;98016.38;;;4.07;100.00
28927;BME280;16038;47.692;9.400;2023-02-04T00:58:14;98029.97;;;4.02;100.00
28927;BME280;16038;47.692;9.400;2023-02-04T01:00:39;98021.56;;;4.04;100.00
28927;BME280;16038;47.692;9.400;2023-02-04T01:03:04;98022.94;;;4.01;100.00
28927;BME280;16038;47.692;9.400;2023-02-04T01:05:29;98027.56;;;4.00;100.00
28927;BME280;16038;47.692;9.400;2023-02-04T01:07:55;98035.41;;;4.02;100.00
28927;BME280;16038;47.692;9.400;2023-02-04T01:10:20;98034.94;;;3.95;100.00
28927;BME280;16038;47.692;9.400;2023-02-04T01:12:45;98036.78;;;3.99;100.00
28927;BME280;16038;47.692;9.400;2023-02-04T01:15:11;98029.59;;;4.09;100.00
28927;BME280;16038;47.692;9.400;2023-02-04T01:17:36;98014.56;;;3.97;100.00
28927;BME280;16038;47.692;9.400;2023-02-04T01:20:01;97995.53;;;3.83;100.00
28927;BME280;16038;47.692;9.400;2023-02-04T01:22:27;98006.94;;;3.80;100.00
28927;BME280;16038;47.692;9.400;2023-02-04T01:24:52;98013.44;;;3.79;100.00
28927;BME280;16038;47.692;9.400;2023-02-04T01:27:17;98025.13;;;3.80;100.00
28927;BME280;16038;47.692;9.400;2023-02-04T01:29:42;98040.09;;;3.96;100.00
28927;BME280;16038;47.692;9.400;2023-02-04T01:32:08;98030.94;;;4.11;100.00
28927;BME280;16038;47.692;9.400;2023-02-04T01:34:33;98033.19;;;4.23;100.00
28927;BME280;16038;47.692;9.400;2023-02-04T01:36:58;98029.03;;;4.12;100.00
28927;BME280;16038;47.692;9.400;2023-02-04T01:39:23;98032.34;;;4.28;100.00
28927;BME280;16038;47.692;9.400;2023-02-04T01:41:49;98027.78;;;4.23;100.00
28927;BME280;16038;47.692;9.400;2023-02-04T01:44:14;98029.84;;;4.31;100.00
28927;BME280;16038;47.692;9.400;2023-02-04T01:46:39;98028.81;;;4.08;100.00
28927;BME280;16038;47.692;9.400;2023-02-04T01:49:05;98028.94;;;3.98;100.00
28927;BME280;16038;47.692;9.400;2023-02-04T01:51:31;98027.56;;;4.00;100.00
28927;BME280;16038;47.692;9.400;2023-02-04T01:53:57;98026.97;;;4.04;100.00
28927;BME280;16038;47.692;9.400;2023-02-04T01:56:24;98025.66;;;4.01;100.00
28927;BME280;16038;47.692;9.400;2023-02-04T01:58:53;98027.91;;;3.94;100.00
28927;BME280;16038;47.692;9.400;2023-02-04T02:04:24;98023.88;;;3.91;100.00
28927;BME280;16038;47.692;9.400;2023-02-04T02:06:53;98023.09;;;3.91;100.00
28927;BME280;16038;47.692;9.400;2023-02-04T02:09:19;98012.16;;;3.96;100.00
28927;BME280;16038;47.692;9.400;2023-02-04T02:11:44;98010.03;;;3.93;100.00
28927;BME280;16038;47.692;9.400;2023-02-04T02:14:10;98013.84;;;3.92;100.00
28927;BME280;16038;47.692;9.400;2023-02-04T02:16:35;98020.22;;;4.01;100.00
28927;BME280;16038;47.692;9.400;2023-02-04T02:19:01;98018.47;;;3.91;100.00
28927;BME280;16038;47.692;9.400;2023-02-04T02:21:37;98013.03;;;3.91;100.00
28927;BME280;16038;47.692;9.400;2023-02-04T02:26:47;98013.25;;;3.95;100.00
28927;BME280;16038;47.692;9.400;2023-02-04T02:29:12;98011.44;;;4.09;100.00
28927;BME280;16038;47.692;9.400;2023-02-04T02:31:38;98013.72;;;4.02;100.00
28927;BME280;16038;47.692;9.400;2023-02-04T02:34:03;98016.50;;;3.97;100.00
28927;BME280;16038;47.692;9.400;2023-02-04T02:36:28;98015.47;;;3.93;100.00
28927;BME280;16038;47.692;9.400;2023-02-04T02:38:54;98003.88;;;3.87;100.00
28927;BME280;16038;47.692;9.400;2023-02-04T02:41:20;98012.25;;;3.91;100.00
28927;BME280;16038;47.692;9.400;2023-02-04T02:43:45;98016.78;;;3.95;100.00
28927;BME280;16038;47.692;9.400;2023-02-04T02:46:10;98008.41;;;3.92;100.00
28927;BME280;16038;47.692;9.400;2023-02-04T02:48:35;98023.31;;;3.94;100.00
28927;BME280;16038;47.692;9.400;2023-02-04T02:51:01;98011.00;;;4.02;100.00
28927;BME280;16038;47.692;9.400;2023-02-04T02:53:26;98013.94;;;4.06;100.00
28927;BME280;16038;47.692;9.400;2023-02-04T02:55:52;98005.13;;;4.14;100.00
28927;BME280;16038;47.692;9.400;2023-02-04T02:58:27;98000.53;;;4.14;100.00
28927;BME280;16038;47.692;9.400;2023-02-04T03:00:53;98006.19;;;4.18;100.00
28927;BME280;16038;47.692;9.400;2023-02-04T03:03:20;98006.91;;;4.24;100.00
28927;BME280;16038;47.692;9.400;2023-02-04T03:05:47;98010.00;;;4.36;100.00
28927;BME280;16038;47.692;9.400;2023-02-04T03:08:15;98001.41;;;4.48;100.00
28927;BME280;16038;47.692;9.400;2023-02-04T03:10:41;98009.16;;;4.54;100.00
28927;BME280;16038;47.692;9.400;2023-02-04T03:13:06;98015.50;;;4.31;100.00
28927;BME280;16038;47.692;9.400;2023-02-04T03:15:32;98018.94;;;4.36;100.00
28927;BME280;16038;47.692;9.400;2023-02-04T03:17:58;98017.16;;;4.46;100.00
28927;BME280;16038;47.692;9.400;2023-02-04T03:20:24;98013.22;;;4.38;100.00
28927;BME280;16038;47.692;9.400;2023-02-04T03:22:50;98014.38;;;4.32;100.00
28927;BME280;16038;47.692;9.400;2023-02-04T03:25:16;98012.31;;;4.43;100.00
28927;BME280;16038;47.692;9.400;2023-02-04T03:27:41;98007.72;;;4.43;100.00
28927;BME280;16038;47.692;9.400;2023-02-04T03:30:07;98010.50;;;4.38;100.00
28927;BME280;16038;47.692;9.400;2023-02-04T03:32:33;98012.31;;;4.62;100.00
28927;BME280;16038;47.692;9.400;2023-02-04T03:34:58;98018.09;;;4.55;100.00
28927;BME280;16038;47.692;9.400;2023-02-04T03:37:23;98022.22;;;4.52;100.00
28927;BME280;16038;47.692;9.400;2023-02-04T03:39:48;98028.75;;;4.51;100.00
28927;BME280;16038;47.692;9.400;2023-02-04T03:42:14;98022.44;;;4.56;100.00
28927;BME280;16038;47.692;9.400;2023-02-04T03:44:39;98018.53;;;4.62;100.00
28927;BME280;16038;47.692;9.400;2023-02-04T03:47:04;98016.34;;;4.64;100.00
28927;BME280;16038;47.692;9.400;2023-02-04T03:49:30;98021.34;;;4.38;100.00
28927;BME280;16038;47.692;9.400;2023-02-04T03:51:56;98032.56;;;4.50;100.00
28927;BME280;16038;47.692;9.400;2023-02-04T03:54:22;98033.59;;;4.54;100.00
28927;BME280;16038;47.692;9.400;2023-02-04T03:56:47;98031.22;;;4.67;100.00
28927;BME280;16038;47.692;9.400;2023-02-04T03:59:12;98031.44;;;4.70;100.00
28927;BME280;16038;47.692;9.400;2023-02-04T04:01:37;98036.06;;;4.70;100.00
28927;BME280;16038;47.692;9.400;2023-02-04T04:04:02;98035.25;;;4.69;100.00
28927;BME280;16038;47.692;9.400;2023-02-04T04:06:28;98036.81;;;4.56;100.00
28927;BME280;16038;47.692;9.400;2023-02-04T04:08:53;98024.53;;;4.59;100.00
28927;BME280;16038;47.692;9.400;2023-02-04T04:11:18;98025.44;;;4.54;100.00
28927;BME280;16038;47.692;9.400;2023-02-04T04:13:46;98028.00;;;4.46;100.00
28927;BME280;16038;47.692;9.400;2023-02-04T04:16:12;98024.28;;;4.42;100.00
28927;BME280;16038;47.692;9.400;2023-02-04T04:18:37;98027.16;;;4.50;100.00
28927;BME280;16038;47.692;9.400;2023-02-04T04:21:03;98025.16;;;4.56;100.00
28927;BME280;16038;47.692;9.400;2023-02-04T04:23:29;98032.47;;;4.74;100.00
28927;BME280;16038;47.692;9.400;2023-02-04T04:25:54;98032.53;;;4.69;100.00
28927;BME280;16038;47.692;9.400;2023-02-04T04:28:19;98035.47;;;4.73;100.00
28927;BME280;16038;47.692;9.400;2023-02-04T04:30:44;98035.84;;;4.66;100.00
28927;BME280;16038;47.692;9.400;2023-02-04T04:33:10;98041.59;;;4.65;100.00
28927;BME280;16038;47.692;9.400;2023-02-04T04:35:35;98037.03;;;4.79;100.00
28927;BME280;16038;47.692;9.400;2023-02-04T04:38:01;98035.53;;;4.68;100.00
28927;BME280;16038;47.692;9.400;2023-02-04T04:40:26;98032.63;;;4.64;100.00
28927;BME280;16038;47.692;9.400;2023-02-04T04:42:51;98041.22;;;4.52;100.00
28927;BME280;16038;47.692;9.400;2023-02-04T04:45:16;98036.75;;;4.62;100.00
28927;BME280;16038;47.692;9.400;2023-02-04T04:47:42;98045.16;;;4.60;100.00
28927;BME280;16038;47.692;9.400;2023-02-04T04:50:07;98038.66;;;4.61;100.00
28927;BME280;16038;47.692;9.400;2023-02-04T04:52:33;98049.78;;;4.59;100.00
28927;BME280;16038;47.692;9.400;2023-02-04T04:54:58;98044.50;;;4.68;100.00
28927;BME280;16038;47.692;9.400;2023-02-04T04:57:23;98037.75;;;4.66;100.00
28927;BME280;16038;47.692;9.400;2023-02-04T04:59:48;98037.47;;;4.67;100.00
28927;BME280;16038;47.692;9.400;2023-02-04T05:02:14;98028.44;;;4.72;100.00
28927;BME280;16038;47.692;9.400;2023-02-04T05:04:39;98030.94;;;4.68;100.00
28927;BME280;16038;47.692;9.400;2023-02-04T05:07:04;98037.16;;;4.69;100.00
28927;BME280;16038;47.692;9.400;2023-02-04T05:09:29;98042.59;;;4.69;100.00
28927;BME280;16038;47.692;9.400;2023-02-04T05:11:55;98038.56;;;4.66;100.00
28927;BME280;16038;47.692;9.400;2023-02-04T05:14:20;98037.69;;;4.52;100.00
28927;BME280;16038;47.692;9.400;2023-02-04T05:16:45;98048.78;;;4.36;100.00
28927;BME280;16038;47.692;9.400;2023-02-04T05:19:11;98046.50;;;4.44;100.00
28927;BME280;16038;47.692;9.400;2023-02-04T05:21:36;98052.50;;;4.59;100.00
28927;BME280;16038;47.692;9.400;2023-02-04T05:24:01;98042.81;;;4.72;100.00
28927;BME280;16038;47.692;9.400;2023-02-04T05:26:26;98051.03;;;4.67;100.00
28927;BME280;16038;47.692;9.400;2023-02-04T05:28:52;98049.78;;;4.59;100.00
28927;BME280;16038;47.692;9.400;2023-02-04T05:31:17;98051.19;;;4.57;100.00
28927;BME280;16038;47.692;9.400;2023-02-04T05:33:42;98057.94;;;4.59;100.00
28927;BME280;16038;47.692;9.400;2023-02-04T05:36:08;98064.44;;;4.58;100.00
28927;BME280;16038;47.692;9.400;2023-02-04T05:38:33;98071.06;;;4.52;100.00
28927;BME280;16038;47.692;9.400;2023-02-04T05:40:58;98075.44;;;4.48;100.00
28927;BME280;16038;47.692;9.400;2023-02-04T05:43:23;98072.66;;;4.53;100.00
28927;BME280;16038;47.692;9.400;2023-02-04T05:45:49;98079.22;;;4.52;100.00
28927;BME280;16038;47.692;9.400;2023-02-04T05:48:14;98081.75;;;4.63;100.00
28927;BME280;16038;47.692;9.400;2023-02-04T05:50:39;98078.38;;;4.71;100.00
28927;BME280;16038;47.692;9.400;2023-02-04T05:53:05;98075.97;;;4.69;100.00
28927;BME280;16038;47.692;9.400;2023-02-04T05:55:30;98086.88;;;4.64;100.00
28927;BME280;16038;47.692;9.400;2023-02-04T05:57:56;98088.59;;;4.60;100.00
28927;BME280;16038;47.692;9.400;2023-02-04T06:00:21;98086.09;;;4.64;100.00
28927;BME280;16038;47.692;9.400;2023-02-04T06:02:47;98094.09;;;4.55;100.00
28927;BME280;16038;47.692;9.400;2023-02-04T06:05:14;98092.94;;;4.61;100.00
28927;BME280;16038;47.692;9.400;2023-02-04T06:07:39;98093.44;;;4.63;100.00
28927;BME280;16038;47.692;9.400;2023-02-04T06:10:04;98096.53;;;4.75;100.00
28927;BME280;16038;47.692;9.400;2023-02-04T06:12:30;98097.91;;;4.73;100.00
28927;BME280;16038;47.692;9.400;2023-02-04T06:14:55;98093.59;;;4.72;100.00
28927;BME280;16038;47.692;9.400;2023-02-04T06:17:20;98091.22;;;4.65;100.00
28927;BME280;16038;47.692;9.400;2023-02-04T06:19:45;98086.88;;;4.64;100.00
28927;BME280;16038;47.692;9.400;2023-02-04T06:22:11;98101.56;;;4.63;100.00
28927;BME280;16038;47.692;9.400;2023-02-04T06:24:36;98093.72;;;4.62;100.00
28927;BME280;16038;47.692;9.400;2023-02-04T06:27:01;98089.59;;;4.64;100.00
28927;BME280;16038;47.692;9.400;2023-02-04T06:29:26;98097.31;;;4.76;100.00
28927;BME280;16038;47.692;9.400;2023-02-04T06:31:52;98104.66;;;4.75;100.00
28927;BME280;16038;47.692;9.400;2023-02-04T06:34:17;98108.16;;;4.57;100.00
28927;BME280;16038;47.692;9.400;2023-02-04T06:36:42;98110.00;;;4.62;100.00
28927;BME280;16038;47.692;9.400;2023-02-04T06:39:07;98109.50;;;4.59;100.00
28927;BME280;16038;47.692;9.400;2023-02-04T06:41:33;98114.75;;;4.70;100.00
28927;BME280;16038;47.692;9.400;2023-02-04T06:43:58;98114.53;;;4.66;100.00
28927;BME280;16038;47.692;9.400;2023-02-04T06:46:23;98124.31;;;4.67;100.00
28927;BME280;16038;47.692;9.400;2023-02-04T06:48:48;98128.31;;;4.70;100.00
28927;BME280;16038;47.692;9.400;2023-02-04T06:51:14;98133.69;;;4.75;100.00
28927;BME280;16038;47.692;9.400;2023-02-04T06:53:39;98133.19;;;4.73;100.00
28927;BME280;16038;47.692;9.400;2023-02-04T06:56:08;98131.78;;;4.56;100.00
28927;BME280;16038;47.692;9.400;2023-02-04T06:58:33;98131.59;;;4.29;100.00
28927;BME280;16038;47.692;9.400;2023-02-04T07:00:58;98138.50;;;4.16;100.00
28927;BME280;16038;47.692;9.400;2023-02-04T07:03:23;98134.22;;;3.91;100.00
28927;BME280;16038;47.692;9.400;2023-02-04T07:05:49;98141.69;;;3.75;100.00
28927;BME280;16038;47.692;9.400;2023-02-04T07:08:15;98147.25;;;3.59;100.00
28927;BME280;16038;47.692;9.400;2023-02-04T07:10:40;98148.41;;;3.53;100.00
28927;BME280;16038;47.692;9.400;2023-02-04T07:13:05;98151.69;;;3.50;100.00
28927;BME280;16038;47.692;9.400;2023-02-04T07:15:31;98156.28;;;3.50;100.00
28927;BME280;16038;47.692;9.400;2023-02-04T07:17:56;98152.25;;;3.47;100.00
28927;BME280;16038;47.692;9.400;2023-02-04T07:20:22;98158.41;;;3.53;100.00
28927;BME280;16038;47.692;9.400;2023-02-04T07:22:47;98152.75;;;3.49;100.00
28927;BME280;16038;47.692;9.400;2023-02-04T07:25:12;98152.19;;;3.52;100.00
28927;BME280;16038;47.692;9.400;2023-02-04T07:27:40;98159.75;;;3.55;100.00
28927;BME280;16038;47.692;9.400;2023-02-04T07:30:05;98171.84;;;3.68;100.00
28927;BME280;16038;47.692;9.400;2023-02-04T07:32:31;98162.31;;;3.71;100.00
28927;BME280;16038;47.692;9.400;2023-02-04T07:34:58;98164.25;;;3.65;100.00
28927;BME280;16038;47.692;9.400;2023-02-04T07:37:23;98165.41;;;3.59;100.00
28927;BME280;16038;47.692;9.400;2023-02-04T07:39:48;98163.75;;;3.63;100.00
28927;BME280;16038;47.692;9.400;2023-02-04T07:42:14;98169.72;;;3.60;100.00
28927;BME280;16038;47.692;9.400;2023-02-04T07:44:39;98174.06;;;3.61;100.00
28927;BME280;16038;47.692;9.400;2023-02-04T07:47:04;98172.13;;;3.67;100.00
28927;BME280;16038;47.692;9.400;2023-02-04T07:49:29;98174.09;;;3.56;100.00
28927;BME280;16038;47.692;9.400;2023-02-04T07:51:55;98183.03;;;3.56;100.00
28927;BME280;16038;47.692;9.400;2023-02-04T07:54:21;98192.28;;;3.55;100.00
28927;BME280;16038;47.692;9.400;2023-02-04T07:56:47;98195.28;;;3.49;100.00
28927;BME280;16038;47.692;9.400;2023-02-04T07:59:12;98196.41;;;3.48;100.00
28927;BME280;16038;47.692;9.400;2023-02-04T08:01:37;98191.22;;;3.51;100.00
28927;BME280;16038;47.692;9.400;2023-02-04T08:04:03;98192.34;;;3.45;100.00
28927;BME280;16038;47.692;9.400;2023-02-04T08:06:28;98179.66;;;3.40;100.00
28927;BME280;16038;47.692;9.400;2023-02-04T08:08:53;98181.56;;;3.40;100.00
28927;BME280;16038;47.692;9.400;2023-02-04T08:11:19;98193.72;;;3.42;100.00
28927;BME280;16038;47.692;9.400;2023-02-04T08:13:44;98189.16;;;3.38;100.00
28927;BME280;16038;47.692;9.400;2023-02-04T08:16:09;98199.44;;;3.41;100.00
28927;BME280;16038;47.692;9.400;2023-02-04T08:18:34;98211.06;;;3.41;100.00
28927;BME280;16038;47.692;9.400;2023-02-04T08:20:59;98207.75;;;3.50;100.00
28927;BME280;16038;47.692;9.400;2023-02-04T08:23:26;98204.66;;;3.61;100.00
28927;BME280;16038;47.692;9.400;2023-02-04T08:25:51;98196.66;;;3.80;100.00
28927;BME280;16038;47.692;9.400;2023-02-04T08:28:16;98206.81;;;3.94;100.00
28927;BME280;16038;47.692;9.400;2023-02-04T08:30:42;98202.09;;;4.05;100.00
28927;BME280;16038;47.692;9.400;2023-02-04T08:33:07;98193.63;;;4.11;100.00
28927;BME280;16038;47.692;9.400;2023-02-04T08:35:32;98190.56;;;3.94;100.00
28927;BME280;16038;47.692;9.400;2023-02-04T08:37:58;98200.88;;;3.92;100.00
28927;BME280;16038;47.692;9.400;2023-02-04T08:40:23;98207.50;;;3.80;100.00
28927;BME280;16038;47.692;9.400;2023-02-04T08:42:48;98206.69;;;3.80;100.00
28927;BME280;16038;47.692;9.400;2023-02-04T08:45:14;98209.53;;;3.94;100.00
28927;BME280;16038;47.692;9.400;2023-02-04T08:47:39;98203.69;;;4.11;100.00
28927;BME280;16038;47.692;9.400;2023-02-04T08:50:04;98197.50;;;4.29;100.00
28927;BME280;16038;47.692;9.400;2023-02-04T08:52:30;98199.75;;;4.46;100.00
28927;BME280;16038;47.692;9.400;2023-02-04T08:54:55;98202.84;;;4.58;100.00
28927;BME280;16038;47.692;9.400;2023-02-04T08:57:20;98204.72;;;4.82;100.00
28927;BME280;16038;47.692;9.400;2023-02-04T08:59:45;98207.31;;;4.92;100.00
28927;BME280;16038;47.692;9.400;2023-02-04T09:02:11;98220.13;;;4.87;100.00
28927;BME280;16038;47.692;9.400;2023-02-04T09:04:36;98210.75;;;4.98;100.00
28927;BME280;16038;47.692;9.400;2023-02-04T09:07:01;98211.13;;;5.10;100.00
28927;BME280;16038;47.692;9.400;2023-02-04T09:09:27;98200.84;;;5.26;100.00
28927;BME280;16038;47.692;9.400;2023-02-04T09:11:52;98209.78;;;5.46;100.00
28927;BME280;16038;47.692;9.400;2023-02-04T09:14:17;98220.03;;;5.49;100.00
28927;BME280;16038;47.692;9.400;2023-02-04T09:16:42;98220.59;;;5.32;100.00
28927;BME280;16038;47.692;9.400;2023-02-04T09:19:08;98222.28;;;5.28;100.00
28927;BME280;16038;47.692;9.400;2023-02-04T09:21:36;98219.34;;;5.24;100.00
28927;BME280;16038;47.692;9.400;2023-02-04T09:24:01;98214.59;;;5.49;100.00
28927;BME280;16038;47.692;9.400;2023-02-04T09:26:27;98222.09;;;5.57;100.00
28927;BME280;16038;47.692;9.400;2023-02-04T09:28:52;98225.16;;;5.69;100.00
28927;BME280;16038;47.692;9.400;2023-02-04T09:31:17;98224.88;;;5.71;100.00
28927;BME280;16038;47.692;9.400;2023-02-04T09:33:43;98229.47;;;5.70;100.00
28927;BME280;16038;47.692;9.400;2023-02-04T09:36:08;98226.81;;;5.84;100.00
28927;BME280;16038;47.692;9.400;2023-02-04T09:38:33;98238.41;;;5.90;100.00
28927;BME280;16038;47.692;9.400;2023-02-04T09:41:00;98237.25;;;5.96;100.00
28927;BME280;16038;47.692;9.400;2023-02-04T09:43:27;98230.22;;;6.09;100.00
28927;BME280;16038;47.692;9.400;2023-02-04T09:45:53;98232.88;;;6.28;100.00
28927;BME280;16038;47.692;9.400;2023-02-04T09:48:20;98235.41;;;6.38;100.00
28927;BME280;16038;47.692;9.400;2023-02-04T09:50:46;98237.53;;;6.41;100.00
28927;BME280;16038;47.692;9.400;2023-02-04T09:53:13;98229.34;;;6.55;100.00
28927;BME280;16038;47.692;9.400;2023-02-04T09:55:40;98228.75;;;6.58;100.00
28927;BME280;16038;47.692;9.400;2023-02-04T09:58:15;98230.28;;;6.50;100.00
28927;BME280;16038;47.692;9.400;2023-02-04T10:00:44;98234.28;;;6.53;100.00
28927;BME280;16038;47.692;9.400;2023-02-04T10:03:14;98233.00;;;6.50;100.00
28927;BME280;16038;47.692;9.400;2023-02-04T10:05:40;98229.97;;;6.52;100.00
28927;BME280;16038;47.692;9.400;2023-02-04T10:08:05;98234.41;;;6.62;100.00
28927;BME280;16038;47.692;9.400;2023-02-04T10:10:30;98247.00;;;6.58;100.00
28927;BME280;16038;47.692;9.400;2023-02-04T10:12:58;98252.66;;;6.61;100.00
28927;BME280;16038;47.692;9.400;2023-02-04T10:15:24;98242.88;;;6.60;100.00
28927;BME280;16038;47.692;9.400;2023-02-04T10:17:57;98252.94;;;6.60;100.00
28927;BME280;16038;47.692;9.400;2023-02-04T10:20:25;98249.50;;;6.68;100.00
28927;BME280;16038;47.692;9.400;2023-02-04T10:22:51;98252.53;;;6.80;100.00
28927;BME280;16038;47.692;9.400;2023-02-04T10:25:18;98251.94;;;6.97;100.00
28927;BME280;16038;47.692;9.400;2023-02-04T10:27:50;98250.00;;;7.12;100.00
28927;BME280;16038;47.692;9.400;2023-02-04T10:30:20;98249.34;;;7.15;100.00
28927;BME280;16038;47.692;9.400;2023-02-04T10:32:46;98250.88;;;7.21;100.00
28927;BME280;16038;47.692;9.400;2023-02-04T10:35:13;98256.09;;;7.31;100.00
28927;BME280;16038;47.692;9.400;2023-02-04T10:37:38;98251.28;;;7.14;100.00
28927;BME280;16038;47.692;9.400;2023-02-04T10:40:04;98247.25;;;7.48;100.00
28927;BME280;16038;47.692;9.400;2023-02-04T10:42:30;98245.25;;;7.40;100.00
28927;BME280;16038;47.692;9.400;2023-02-04T10:44:56;98251.44;;;7.32;100.00
28927;BME280;16038;47.692;9.400;2023-02-04T10:47:22;98252.31;;;7.41;100.00
28927;BME280;16038;47.692;9.400;2023-02-04T10:52:16;98240.44;;;7.37;100.00
28927;BME280;16038;47.692;9.400;2023-02-04T10:54:43;98248.81;;;7.40;100.00
28927;BME280;16038;47.692;9.400;2023-02-04T10:57:27;98246.00;;;7.32;100.00
28927;BME280;16038;47.692;9.400;2023-02-04T10:59:54;98254.41;;;7.07;100.00
28927;BME280;16038;47.692;9.400;2023-02-04T11:05:21;98244.03;;;7.10;100.00
28927;BME280;16038;47.692;9.400;2023-02-04T11:07:47;98244.53;;;7.12;100.00
28927;BME280;16038;47.692;9.400;2023-02-04T11:10:14;98241.16;;;7.28;100.00
28927;BME280;16038;47.692;9.400;2023-02-04T11:12:45;98237.16;;;7.12;100.00
28927;BME280;16038;47.692;9.400;2023-02-04T11:18:03;98232.78;;;7.25;100.00
28927;BME280;16038;47.692;9.400;2023-02-04T11:20:32;98231.81;;;7.07;100.00
28927;BME280;16038;47.692;9.400;2023-02-04T11:23:12;98230.59;;;7.50;100.00
28927;BME280;16038;47.692;9.400;2023-02-04T11:25:37;98226.94;;;7.54;100.00
28927;BME280;16038;47.692;9.400;2023-02-04T11:28:14;98227.69;;;7.69;100.00
28927;BME280;16038;47.692;9.400;2023-02-04T11:30:40;98229.16;;;7.52;100.00
28927;BME280;16038;47.692;9.400;2023-02-04T11:33:05;98226.50;;;7.61;100.00
28927;BME280;16038;47.692;9.400;2023-02-04T11:35:56;98228.06;;;7.53;100.00
28927;BME280;16038;47.692;9.400;2023-02-04T11:38:25;98218.69;;;7.68;100.00
28927;BME280;16038;47.692;9.400;2023-02-04T11:40:55;98228.47;;;7.92;100.00
28927;BME280;16038;47.692;9.400;2023-02-04T11:43:20;98229.19;;;7.75;100.00
28927;BME280;16038;47.692;9.400;2023-02-04T11:45:45;98220.59;;;7.45;100.00
28927;BME280;16038;47.692;9.400;2023-02-04T11:48:12;98214.94;;;7.19;100.00
28927;BME280;16038;47.692;9.400;2023-02-04T11:50:38;98218.44;;;7.33;100.00
28927;BME280;16038;47.692;9.400;2023-02-04T11:53:03;98223.50;;;7.94;100.00
28927;BME280;16038;47.692;9.400;2023-02-04T11:55:30;98218.84;;;8.48;100.00
28927;BME280;16038;47.692;9.400;2023-02-04T11:57:55;98225.72;;;9.03;100.00
28927;BME280;16038;47.692;9.400;2023-02-04T12:00:22;98215.31;;;9.57;97.52
28927;BME280;16038;47.692;9.400;2023-02-04T12:02:49;98222.13;;;10.16;95.27
28927;BME280;16038;47.692;9.400;2023-02-04T12:05:16;98217.13;;;10.65;91.94
28927;BME280;16038;47.692;9.400;2023-02-04T12:07:42;98215.63;;;10.38;86.63
28927;BME280;16038;47.692;9.400;2023-02-04T12:12:40;98215.41;;;7.80;93.70
28927;BME280;16038;47.692;9.400;2023-02-04T12:15:19;98213.09;;;7.51;99.85
28927;BME280;16038;47.692;9.400;2023-02-04T12:17:45;98223.03;;;7.24;94.12
28927;BME280;16038;47.692;9.400;2023-02-04T12:20:13;98229.03;;;7.35;91.86
28927;BME280;16038;47.692;9.400;2023-02-04T12:22:39;98229.41;;;7.05;92.95
28927;BME280;16038;47.692;9.400;2023-02-04T12:25:04;98231.19;;;6.74;95.90
28927;BME280;16038;47.692;9.400;2023-02-04T12:27:29;98234.63;;;6.05;100.00
28927;BME280;16038;47.692;9.400;2023-02-04T12:29:55;98230.44;;;6.26;100.00
28927;BME280;16038;47.692;9.400;2023-02-04T12:32:20;98241.25;;;6.73;99.47
28927;BME280;16038;47.692;9.400;2023-02-04T12:34:45;98241.94;;;6.79;99.18
28927;BME280;16038;47.692;9.400;2023-02-04T12:37:10;98245.28;;;6.48;95.04
28927;BME280;16038;47.692;9.400;2023-02-04T12:39:36;98248.91;;;6.71;96.27
28927;BME280;16038;47.692;9.400;2023-02-04T12:42:01;98241.13;;;6.78;96.74
28927;BME280;16038;47.692;9.400;2023-02-04T12:44:28;98251.81;;;6.61;96.42
28927;BME280;16038;47.692;9.400;2023-02-04T12:46:53;98253.50;;;6.15;97.85
28927;BME280;16038;47.692;9.400;2023-02-04T12:49:19;98252.97;;;5.99;100.00
28927;BME280;16038;47.692;9.400;2023-02-04T12:51:44;98251.75;;;5.72;100.00
28927;BME280;16038;47.692;9.400;2023-02-04T12:54:09;98254.88;;;5.80;100.00
28927;BME280;16038;47.692;9.400;2023-02-04T12:56:35;98258.09;;;5.68;100.00
28927;BME280;16038;47.692;9.400;2023-02-04T12:59:00;98260.28;;;5.66;100.00
28927;BME280;16038;47.692;9.400;2023-02-04T13:01:25;98260.00;;;5.67;100.00
28927;BME280;16038;47.692;9.400;2023-02-04T13:03:50;98268.38;;;5.71;100.00
28927;BME280;16038;47.692;9.400;2023-02-04T13:06:16;98257.06;;;5.64;100.00
28927;BME280;16038;47.692;9.400;2023-02-04T13:08:41;98261.53;;;5.73;100.00